createdAt,value
2023-04-07T00:01:04.025Z,2.92
2023-04-07T00:03:31.731Z,3.39
2023-04-07T00:05:59.313Z,3.00
2023-04-07T00:08:27.250Z,3.49
2023-04-07T00:10:56.244Z,3.60
2023-04-07T00:13:23.829Z,3.28
2023-04-07T00:15:51.612Z,3.08
2023-04-07T00:18:19.226Z,3.46
2023-04-07T00:20:46.690Z,3.28
2023-04-07T00:23:14.238Z,2.85
2023-04-07T00:25:41.815Z,2.77
2023-04-07T00:28:10.649Z,3.13
2023-04-07T00:30:38.468Z,3.00
2023-04-07T00:33:05.984Z,3.14
2023-04-07T00:35:37.442Z,3.00
2023-04-07T00:38:05.014Z,3.01
2023-04-07T00:40:32.517Z,3.11
2023-04-07T00:43:00.195Z,3.03
2023-04-07T00:45:29.028Z,3.34
2023-04-07T00:47:57.828Z,3.21
2023-04-07T00:50:25.487Z,3.15
2023-04-07T00:52:53.222Z,3.28
2023-04-07T00:55:21.060Z,3.15
2023-04-07T00:57:48.554Z,2.94
2023-04-07T01:00:17.808Z,3.11
2023-04-07T01:02:54.134Z,3.12
2023-04-07T01:05:25.068Z,2.67
2023-04-07T01:07:58.660Z,3.03
2023-04-07T01:10:29.548Z,2.94
2023-04-07T01:13:03.686Z,3.17
2023-04-07T01:15:32.041Z,3.00
2023-04-07T01:18:08.631Z,2.81
2023-04-07T01:20:37.603Z,2.64
2023-04-07T01:23:07.900Z,2.87
2023-04-07T01:25:56.072Z,2.74
2023-04-07T01:28:41.203Z,2.70
2023-04-07T01:31:10.616Z,2.80
2023-04-07T01:33:38.709Z,2.75
2023-04-07T01:36:08.135Z,2.70
2023-04-07T01:38:36.003Z,2.65
2023-04-07T01:41:04.349Z,2.87
2023-04-07T01:43:32.374Z,2.96
2023-04-07T01:46:00.632Z,2.85
2023-04-07T01:48:29.657Z,2.68
2023-04-07T01:50:57.388Z,2.54
2023-04-07T01:53:25.255Z,2.82
2023-04-07T01:55:53.669Z,2.77
2023-04-07T01:58:21.311Z,2.73
2023-04-07T02:00:50.790Z,2.55
2023-04-07T02:03:21.760Z,2.82
2023-04-07T02:05:53.600Z,2.76
2023-04-07T02:08:22.684Z,2.71
2023-04-07T02:10:50.630Z,2.57
2023-04-07T02:13:21.293Z,2.73
2023-04-07T02:15:49.598Z,2.32
2023-04-07T02:18:18.648Z,2.50
2023-04-07T02:20:47.538Z,2.55
2023-04-07T02:23:16.430Z,2.45
2023-04-07T02:25:43.953Z,2.51
2023-04-07T02:28:11.450Z,2.18
2023-04-07T02:30:39.019Z,2.47
2023-04-07T02:33:06.622Z,2.39
2023-04-07T02:35:34.096Z,2.49
2023-04-07T02:38:01.604Z,2.37
2023-04-07T02:40:30.911Z,2.62
2023-04-07T02:42:58.408Z,2.53
2023-04-07T02:45:26.432Z,2.36
2023-04-07T02:47:54.115Z,2.23
2023-04-07T02:50:21.655Z,2.21
2023-04-07T02:52:49.171Z,2.19
2023-04-07T02:55:18.367Z,2.20
2023-04-07T02:57:47.253Z,2.03
2023-04-07T03:00:17.402Z,2.21
2023-04-07T03:02:45.082Z,2.13
2023-04-07T03:05:12.881Z,2.25
2023-04-07T03:07:40.416Z,2.14
2023-04-07T03:10:08.565Z,2.00
2023-04-07T03:12:36.059Z,2.19
2023-04-07T03:15:05.257Z,1.99
2023-04-07T03:17:32.760Z,1.81
2023-04-07T03:20:00.254Z,2.08
2023-04-07T03:22:27.786Z,1.82
2023-04-07T03:24:55.395Z,1.72
2023-04-07T03:27:22.966Z,1.88
2023-04-07T03:29:51.227Z,2.13
2023-04-07T03:32:20.047Z,2.09
2023-04-07T03:34:47.531Z,1.78
2023-04-07T03:37:15.074Z,1.84
2023-04-07T03:39:42.976Z,1.78
2023-04-07T03:42:10.697Z,1.59
2023-04-07T03:44:38.162Z,1.87
2023-04-07T03:47:06.152Z,1.63
2023-04-07T03:49:34.984Z,1.56
2023-04-07T03:52:02.884Z,1.50
2023-04-07T03:54:30.436Z,1.49
2023-04-07T03:56:58.317Z,1.62
2023-04-07T03:59:25.924Z,1.64
2023-04-07T04:01:53.579Z,1.42
2023-04-07T04:04:21.289Z,1.55
2023-04-07T04:06:50.691Z,1.52
2023-04-07T04:09:18.388Z,1.63
2023-04-07T04:11:46.260Z,1.70
2023-04-07T04:14:13.752Z,1.60
2023-04-07T04:16:41.250Z,1.50
2023-04-07T04:19:08.739Z,1.46
2023-04-07T04:21:36.282Z,1.63
2023-04-07T04:24:05.536Z,1.55
2023-04-07T04:26:33.031Z,1.67
2023-04-07T04:29:00.540Z,1.69
2023-04-07T04:31:28.057Z,1.52
2023-04-07T04:33:56.673Z,1.94
2023-04-07T04:36:26.439Z,1.76
2023-04-07T04:38:54.055Z,1.70
2023-04-07T04:41:23.085Z,1.69
2023-04-07T04:43:50.557Z,1.66
2023-04-07T04:46:18.136Z,1.65
2023-04-07T04:48:45.631Z,1.64
2023-04-07T04:51:13.145Z,1.33
2023-04-07T04:53:40.704Z,1.35
2023-04-07T04:56:10.931Z,1.30
2023-04-07T04:58:42.101Z,1.52
2023-04-07T05:01:09.640Z,1.59
2023-04-07T05:03:40.089Z,1.35
2023-04-07T05:06:08.294Z,1.11
2023-04-07T05:08:35.838Z,1.27
2023-04-07T05:11:03.333Z,1.48
2023-04-07T05:13:31.275Z,1.34
2023-04-07T05:16:00.167Z,1.41
2023-04-07T05:18:27.758Z,1.34
2023-04-07T05:20:55.535Z,1.40
2023-04-07T05:23:23.051Z,1.30
2023-04-07T05:25:51.121Z,1.56
2023-04-07T05:28:19.265Z,1.65
2023-04-07T05:30:46.974Z,1.53
2023-04-07T05:33:16.014Z,1.72
2023-04-07T05:35:45.446Z,1.74
2023-04-07T05:38:13.063Z,1.68
2023-04-07T05:40:40.974Z,1.85
2023-04-07T05:43:08.488Z,1.83
2023-04-07T05:45:36.117Z,2.05
2023-04-07T05:48:03.734Z,2.03
2023-04-07T05:50:32.611Z,2.10
2023-04-07T05:53:00.144Z,2.17
2023-04-07T05:55:28.152Z,2.27
2023-04-07T05:57:55.689Z,2.31
2023-04-07T06:00:23.158Z,2.38
2023-04-07T06:02:50.852Z,2.41
2023-04-07T06:05:18.795Z,2.51
2023-04-07T06:07:47.665Z,2.63
2023-04-07T06:10:16.081Z,2.62
2023-04-07T06:12:43.589Z,2.67
2023-04-07T06:15:11.849Z,2.61
2023-04-07T06:17:39.394Z,2.76
2023-04-07T06:20:08.467Z,2.83
2023-04-07T06:22:36.278Z,2.87
2023-04-07T06:25:07.361Z,3.19
2023-04-07T06:27:34.856Z,3.17
2023-04-07T06:30:02.372Z,2.94
2023-04-07T06:32:29.957Z,2.88
2023-04-07T06:34:57.652Z,3.07
2023-04-07T06:37:26.127Z,3.12
2023-04-07T06:39:53.638Z,3.25
2023-04-07T06:42:22.432Z,3.07
2023-04-07T06:44:49.928Z,3.20
2023-04-07T06:47:17.445Z,3.15
2023-04-07T06:49:44.942Z,3.16
2023-04-07T06:52:12.434Z,3.40
2023-04-07T06:54:39.939Z,3.52
2023-04-07T06:57:11.876Z,3.77
2023-04-07T06:59:40.797Z,3.76
2023-04-07T07:02:08.643Z,3.85
2023-04-07T07:04:37.411Z,3.69
2023-04-07T07:07:04.903Z,3.84
2023-04-07T07:09:32.408Z,4.27
2023-04-07T07:12:03.927Z,3.83
2023-04-07T07:14:31.848Z,3.57
2023-04-07T07:17:00.630Z,4.08
2023-04-07T07:19:28.134Z,4.09
2023-04-07T07:21:56.411Z,4.25
2023-04-07T07:24:24.279Z,4.41
2023-04-07T07:26:51.770Z,4.56
2023-04-07T07:29:19.258Z,4.95
2023-04-07T07:31:46.767Z,4.88
2023-04-07T07:34:15.792Z,4.62
2023-04-07T07:36:43.288Z,5.08
2023-04-07T07:39:11.078Z,4.71
2023-04-07T07:41:38.572Z,5.07
2023-04-07T07:44:06.071Z,5.10
2023-04-07T07:46:33.998Z,4.73
2023-04-07T07:49:01.672Z,5.18
2023-04-07T07:51:30.701Z,5.11
2023-04-07T07:53:58.222Z,5.68
2023-04-07T07:56:25.729Z,5.95
2023-04-07T07:58:53.244Z,5.70
2023-04-07T08:01:21.310Z,6.25
2023-04-07T08:03:49.353Z,5.98
2023-04-07T08:06:17.861Z,6.16
2023-04-07T08:08:46.758Z,6.27
2023-04-07T08:11:14.305Z,7.32
2023-04-07T08:13:45.456Z,6.36
2023-04-07T08:16:13.317Z,7.03
2023-04-07T08:18:40.962Z,6.56
2023-04-07T08:21:08.607Z,6.51
2023-04-07T08:23:36.379Z,7.79
2023-04-07T08:26:05.332Z,7.34
2023-04-07T08:28:32.847Z,6.34
2023-04-07T08:31:00.347Z,7.84
2023-04-07T08:33:27.846Z,6.68
2023-04-07T08:35:55.343Z,6.54
2023-04-07T08:38:22.866Z,7.69
2023-04-07T08:40:54.902Z,7.28
2023-04-07T08:43:24.103Z,7.68
2023-04-07T08:45:53.534Z,8.02
2023-04-07T08:48:23.250Z,8.45
2023-04-07T08:50:53.139Z,7.48
2023-04-07T08:53:24.983Z,9.68
2023-04-07T08:55:52.578Z,8.18
2023-04-07T08:58:20.464Z,7.67
2023-04-07T09:00:50.426Z,10.35
2023-04-07T09:03:18.956Z,10.31
2023-04-07T09:05:47.106Z,9.12
2023-04-07T09:08:14.976Z,10.47
2023-04-07T09:10:42.512Z,8.90
2023-04-07T09:13:10.057Z,9.18
2023-04-07T09:15:38.779Z,8.44
2023-04-07T09:18:07.903Z,9.69
2023-04-07T09:20:57.484Z,9.71
2023-04-07T09:23:32.429Z,9.24
2023-04-07T09:26:01.360Z,10.99
2023-04-07T09:28:44.051Z,9.18
2023-04-07T09:31:11.730Z,9.97
2023-04-07T09:33:40.597Z,9.00
2023-04-07T09:36:08.183Z,11.08
2023-04-07T09:38:37.789Z,9.98
2023-04-07T09:41:09.798Z,11.61
2023-04-07T09:43:38.797Z,11.47
2023-04-07T09:46:12.036Z,10.84
2023-04-07T09:48:41.157Z,8.95
2023-04-07T09:51:10.518Z,8.71
2023-04-07T09:53:46.403Z,9.99
2023-04-07T09:56:16.240Z,8.70
2023-04-07T09:58:45.604Z,9.17
2023-04-07T10:01:14.569Z,10.57
2023-04-07T10:03:44.155Z,8.33
2023-04-07T10:06:12.946Z,8.94
2023-04-07T10:08:42.753Z,9.40
2023-04-07T10:11:11.256Z,10.23
2023-04-07T10:13:41.351Z,11.31
2023-04-07T10:16:09.512Z,9.79
2023-04-07T10:18:37.961Z,10.08
2023-04-07T10:21:09.286Z,9.47
2023-04-07T10:23:51.611Z,8.76
2023-04-07T10:30:12.767Z,9.94
2023-04-07T10:32:47.642Z,11.82
2023-04-07T10:35:15.539Z,12.60
2023-04-07T10:38:17.333Z,9.84
2023-04-07T10:40:45.643Z,10.52
2023-04-07T10:43:13.791Z,10.31
2023-04-07T10:45:56.410Z,11.06
2023-04-07T10:48:24.022Z,11.62
2023-04-07T10:51:15.320Z,11.81
2023-04-07T10:54:20.677Z,9.33
2023-04-07T10:57:11.916Z,11.87
2023-04-07T10:59:42.489Z,13.06
2023-04-07T11:02:33.661Z,10.33
2023-04-07T11:05:02.774Z,10.03
2023-04-07T11:07:55.184Z,11.67
2023-04-07T11:10:23.321Z,10.46
2023-04-07T11:13:06.173Z,12.47
2023-04-07T11:15:35.315Z,10.54
2023-04-07T11:18:17.870Z,9.98
2023-04-07T11:20:48.140Z,13.12
2023-04-07T11:23:16.487Z,10.73
2023-04-07T11:25:45.859Z,13.43
2023-04-07T11:28:15.132Z,10.64
2023-04-07T11:30:49.704Z,12.58
2023-04-07T11:33:18.645Z,10.99
2023-04-07T11:35:55.472Z,12.40
2023-04-07T11:38:24.336Z,11.22
2023-04-07T11:40:52.217Z,12.12
2023-04-07T11:43:22.888Z,9.98
2023-04-07T11:46:07.748Z,10.80
2023-04-07T11:48:37.143Z,12.91
2023-04-07T11:51:05.390Z,13.44
2023-04-07T11:53:34.282Z,10.57
2023-04-07T11:56:04.095Z,10.40
2023-04-07T11:58:33.262Z,10.89
2023-04-07T12:01:05.906Z,12.04
2023-04-07T12:03:34.132Z,13.31
2023-04-07T12:06:01.998Z,12.58
2023-04-07T12:08:39.921Z,12.36
2023-04-07T12:11:08.006Z,12.45
2023-04-07T12:13:37.301Z,12.59
2023-04-07T12:16:04.993Z,11.71
2023-04-07T12:18:32.674Z,10.94
2023-04-07T12:21:00.441Z,12.15
2023-04-07T12:23:27.944Z,11.81
2023-04-07T12:25:55.858Z,12.39
2023-04-07T12:28:23.387Z,15.47
2023-04-07T12:30:52.200Z,11.43
2023-04-07T12:33:19.685Z,12.44
2023-04-07T12:35:47.434Z,15.09
2023-04-07T12:38:15.651Z,11.53
2023-04-07T12:40:43.852Z,11.20
2023-04-07T12:43:11.378Z,12.85
2023-04-07T12:45:38.899Z,14.47
2023-04-07T12:48:07.864Z,13.60
2023-04-07T12:50:36.393Z,12.56
2023-04-07T12:53:05.363Z,12.27
2023-04-07T12:55:35.579Z,11.40
2023-04-07T12:58:03.225Z,14.76
2023-04-07T13:00:31.464Z,11.47
2023-04-07T13:02:59.141Z,15.38
2023-04-07T13:05:29.944Z,14.45
2023-04-07T13:07:57.406Z,13.22
2023-04-07T13:10:24.900Z,13.00
2023-04-07T13:12:52.405Z,11.68
2023-04-07T13:15:20.150Z,15.68
2023-04-07T13:17:47.774Z,15.58
2023-04-07T13:22:50.766Z,15.41
2023-04-07T13:25:28.295Z,14.75
2023-04-07T13:27:55.894Z,15.28
2023-04-07T13:30:23.379Z,13.39
2023-04-07T13:32:50.866Z,15.06
2023-04-07T13:35:18.827Z,11.92
2023-04-07T13:37:47.592Z,15.40
2023-04-07T13:40:15.384Z,12.78
2023-04-07T13:42:44.402Z,12.54
2023-04-07T13:45:12.054Z,13.52
2023-04-07T13:47:39.905Z,10.96
2023-04-07T13:50:08.324Z,14.47
2023-04-07T13:52:36.267Z,11.22
2023-04-07T13:55:06.068Z,12.67
2023-04-07T13:57:33.561Z,13.76
2023-04-07T14:00:01.233Z,11.25
2023-04-07T14:02:29.726Z,14.33
2023-04-07T14:04:57.802Z,13.01
2023-04-07T14:07:25.288Z,11.88
2023-04-07T14:09:54.495Z,13.99
2023-04-07T14:12:23.627Z,12.69
2023-04-07T14:14:52.376Z,14.31
2023-04-07T14:17:19.862Z,12.83
2023-04-07T14:19:48.602Z,12.13
2023-04-07T14:22:16.420Z,12.50
2023-04-07T14:24:45.141Z,13.15
2023-04-07T14:27:14.060Z,11.52
2023-04-07T14:29:42.869Z,12.64
2023-04-07T14:32:10.348Z,13.93
2023-04-07T14:34:38.327Z,15.51
2023-04-07T14:37:06.254Z,13.63
2023-04-07T14:39:34.217Z,11.73
2023-04-07T14:42:01.726Z,16.51
2023-04-07T14:44:31.187Z,14.46
2023-04-07T14:47:00.167Z,12.89
2023-04-07T14:49:28.507Z,15.22
2023-04-07T14:51:56.085Z,13.34
2023-04-07T14:54:24.453Z,14.90
2023-04-07T14:56:51.918Z,13.44
2023-04-07T14:59:19.406Z,14.62
2023-04-07T15:01:46.951Z,15.57
2023-04-07T15:04:15.896Z,12.33
2023-04-07T15:06:44.699Z,13.72
2023-04-07T15:09:13.092Z,12.85
2023-04-07T15:11:40.556Z,12.16
2023-04-07T15:14:08.056Z,12.29
2023-04-07T15:16:35.742Z,11.20
2023-04-07T15:19:03.499Z,12.23
2023-04-07T15:21:32.289Z,14.34
2023-04-07T15:23:59.800Z,11.10
2023-04-07T15:26:27.280Z,11.04
2023-04-07T15:28:54.961Z,10.37
2023-04-07T15:31:23.346Z,10.36
2023-04-07T15:33:51.502Z,10.11
2023-04-07T15:36:18.985Z,11.60
2023-04-07T15:38:47.815Z,11.15
2023-04-07T15:41:16.475Z,11.02
2023-04-07T15:43:44.012Z,10.71
2023-04-07T15:46:11.523Z,11.07
2023-04-07T15:48:39.110Z,11.15
2023-04-07T15:51:06.747Z,10.71
2023-04-07T15:53:34.457Z,10.09
2023-04-07T15:56:03.394Z,11.87
2023-04-07T15:58:32.190Z,10.19
2023-04-07T16:00:59.837Z,11.19
2023-04-07T16:03:29.016Z,12.05
2023-04-07T16:05:56.726Z,10.54
2023-04-07T16:08:24.215Z,11.93
2023-04-07T16:10:51.770Z,10.71
2023-04-07T16:13:20.692Z,9.70
2023-04-07T16:15:48.283Z,9.65
2023-04-07T16:18:15.888Z,9.52
2023-04-07T16:20:43.415Z,9.81
2023-04-07T16:23:10.984Z,9.86
2023-04-07T16:25:38.473Z,11.26
2023-04-07T16:28:06.051Z,11.26
2023-04-07T16:30:34.862Z,10.66
2023-04-07T16:33:03.220Z,11.45
2023-04-07T16:35:31.874Z,11.81
2023-04-07T16:38:03.931Z,10.40
2023-04-07T16:40:31.582Z,9.60
2023-04-07T16:42:59.065Z,9.86
2023-04-07T16:45:26.632Z,11.36
2023-04-07T16:47:55.540Z,11.39
2023-04-07T16:50:23.196Z,9.84
2023-04-07T16:52:50.682Z,9.63
2023-04-07T16:55:18.224Z,9.54
2023-04-07T16:57:45.703Z,9.69
2023-04-07T17:00:14.300Z,9.76
2023-04-07T17:02:41.885Z,11.48
2023-04-07T17:05:11.029Z,9.69
2023-04-07T17:07:38.533Z,9.13
2023-04-07T17:10:06.912Z,9.22
2023-04-07T17:12:34.397Z,9.82
2023-04-07T17:15:01.873Z,9.30
2023-04-07T17:17:29.402Z,8.54
2023-04-07T17:19:57.593Z,9.04
2023-04-07T17:22:26.532Z,8.33
2023-04-07T17:24:54.043Z,8.15
2023-04-07T17:27:21.574Z,8.02
2023-04-07T17:29:49.035Z,7.82
2023-04-07T17:32:16.517Z,7.90
2023-04-07T17:34:43.987Z,8.16
2023-04-07T17:37:11.469Z,7.82
2023-04-07T17:39:40.595Z,7.81
2023-04-07T17:42:10.834Z,7.70
2023-04-07T17:44:38.359Z,7.82
2023-04-07T17:47:05.851Z,8.00
2023-04-07T17:49:33.343Z,8.23
2023-04-07T17:52:00.882Z,9.77
2023-04-07T17:54:28.394Z,9.73
2023-04-07T17:56:57.637Z,8.81
2023-04-07T17:59:25.128Z,7.80
2023-04-07T18:01:52.732Z,7.62
2023-04-07T18:04:20.337Z,8.89
2023-04-07T18:06:47.941Z,8.23
2023-04-07T18:09:15.871Z,8.87
2023-04-07T18:11:43.387Z,8.00
2023-04-07T18:14:12.273Z,7.98
2023-04-07T18:16:40.405Z,7.25
2023-04-07T18:19:07.892Z,7.06
2023-04-07T18:21:36.327Z,7.32
2023-04-07T18:24:03.852Z,6.70
2023-04-07T18:26:31.838Z,6.68
2023-04-07T18:28:59.369Z,6.85
2023-04-07T18:31:28.221Z,6.80
2023-04-07T18:33:55.736Z,6.76
2023-04-07T18:36:27.062Z,6.28
2023-04-07T18:38:54.900Z,7.09
2023-04-07T18:41:22.488Z,6.40
2023-04-07T18:43:50.200Z,6.40
2023-04-07T18:46:18.044Z,6.25
2023-04-07T18:48:46.905Z,6.11
2023-04-07T18:51:14.804Z,6.25
2023-04-07T18:53:42.286Z,5.75
2023-04-07T18:56:09.790Z,5.92
2023-04-07T18:58:43.700Z,5.80
2023-04-07T19:01:11.597Z,6.49
2023-04-07T19:03:39.587Z,5.82
2023-04-07T19:06:08.563Z,6.58
2023-04-07T19:08:36.762Z,6.43
2023-04-07T19:11:04.612Z,5.88
2023-04-07T19:13:32.088Z,6.54
2023-04-07T19:16:00.227Z,7.02
2023-04-07T19:18:29.209Z,5.77
2023-04-07T19:20:57.029Z,6.25
2023-04-07T19:23:26.083Z,7.16
2023-04-07T19:25:53.697Z,6.21
2023-04-07T19:28:21.506Z,6.18
2023-04-07T19:30:49.025Z,6.25
2023-04-07T19:33:16.508Z,5.75
2023-04-07T19:35:44.086Z,7.10
2023-04-07T19:38:11.630Z,6.84
2023-04-07T19:40:40.480Z,5.77
2023-04-07T19:43:08.292Z,7.20
2023-04-07T19:45:35.846Z,6.50
2023-04-07T19:48:03.457Z,5.76
2023-04-07T19:50:31.063Z,6.04
2023-04-07T19:52:58.523Z,5.73
2023-04-07T19:55:26.065Z,5.89
2023-04-07T19:57:55.272Z,7.27
2023-04-07T20:00:22.941Z,6.44
2023-04-07T20:02:50.713Z,5.88
2023-04-07T20:05:18.831Z,5.34
2023-04-07T20:07:47.006Z,6.24
2023-04-07T20:10:14.559Z,5.24
2023-04-07T20:12:42.035Z,5.17
2023-04-07T20:15:11.936Z,5.14
2023-04-07T20:17:39.521Z,5.07
2023-04-07T20:20:08.180Z,5.27
2023-04-07T20:22:36.048Z,4.99
2023-04-07T20:25:04.845Z,5.25
2023-04-07T20:27:32.372Z,6.72
2023-04-07T20:29:59.947Z,6.12
2023-04-07T20:32:28.983Z,5.90
2023-04-07T20:34:56.503Z,6.36
2023-04-07T20:37:25.990Z,5.47
2023-04-07T20:39:55.488Z,5.13
2023-04-07T20:42:23.119Z,5.34
2023-04-07T20:44:50.805Z,5.02
2023-04-07T20:47:18.280Z,4.89
2023-04-07T20:49:47.148Z,4.77
2023-04-07T20:52:14.621Z,4.79
2023-04-07T20:54:44.770Z,5.07
2023-04-07T20:57:12.304Z,4.98
2023-04-07T20:59:39.782Z,4.66
2023-04-07T21:02:08.044Z,5.36
2023-04-07T21:04:36.829Z,5.67
2023-04-07T21:07:05.847Z,5.48
2023-04-07T21:09:33.339Z,5.00
2023-04-07T21:12:03.498Z,5.01
2023-04-07T21:14:31.753Z,4.78
2023-04-07T21:16:59.370Z,4.61
2023-04-07T21:19:26.843Z,4.84
2023-04-07T21:21:54.432Z,4.61
2023-04-07T21:24:23.634Z,5.12
2023-04-07T21:26:54.646Z,4.67
2023-04-07T21:29:23.293Z,4.99
2023-04-07T21:31:51.637Z,4.63
2023-04-07T21:34:19.728Z,5.96
2023-04-07T21:36:47.777Z,4.61
2023-04-07T21:39:16.255Z,4.57
2023-04-07T21:41:45.783Z,4.82
2023-04-07T21:44:14.249Z,4.73
2023-04-07T21:46:42.600Z,4.97
2023-04-07T21:49:13.507Z,4.75
2023-04-07T21:51:43.148Z,4.70
2023-04-07T21:54:11.716Z,4.92
2023-04-07T21:56:39.813Z,4.55
2023-04-07T21:59:09.521Z,4.28
2023-04-07T22:01:37.809Z,4.99
2023-04-07T22:04:06.019Z,4.95
2023-04-07T22:06:36.844Z,4.57
2023-04-07T22:09:06.923Z,4.53
2023-04-07T22:11:37.865Z,4.24
2023-04-07T22:14:07.378Z,4.22
2023-04-07T22:16:39.321Z,4.46
2023-04-07T22:19:07.751Z,4.06
2023-04-07T22:21:36.124Z,4.53
2023-04-07T22:24:06.627Z,4.66
2023-04-07T22:26:35.011Z,4.12
2023-04-07T22:29:03.143Z,4.11
2023-04-07T22:31:31.897Z,4.07
2023-04-07T22:34:02.335Z,4.39
2023-04-07T22:36:31.514Z,4.75
2023-04-07T22:38:59.666Z,5.27
2023-04-07T22:41:27.874Z,5.27
2023-04-07T22:43:55.912Z,5.78
2023-04-07T22:46:24.141Z,6.01
2023-04-07T22:48:54.537Z,4.72
2023-04-07T22:51:24.492Z,4.66
2023-04-07T22:53:55.373Z,5.43
2023-04-07T22:56:29.271Z,5.21
2023-04-07T22:59:05.018Z,5.13
2023-04-07T23:01:32.748Z,5.00
2023-04-07T23:04:00.361Z,5.17
2023-04-07T23:06:29.451Z,4.86
2023-04-07T23:08:56.996Z,4.39
2023-04-07T23:11:24.627Z,4.19
2023-04-07T23:13:52.246Z,4.58
2023-04-07T23:16:20.033Z,5.43
2023-04-07T23:18:47.718Z,5.21
2023-04-07T23:21:15.375Z,6.19
2023-04-07T23:23:44.169Z,5.06
2023-04-07T23:26:11.648Z,5.16
2023-04-07T23:28:40.117Z,4.88
2023-04-07T23:31:07.934Z,5.55
2023-04-07T23:33:36.125Z,5.82
2023-04-07T23:36:03.732Z,5.63
2023-04-07T23:38:31.337Z,5.60
2023-04-07T23:41:00.150Z,5.27
2023-04-07T23:43:27.651Z,4.75
2023-04-07T23:45:55.216Z,5.10
2023-04-07T23:48:22.797Z,4.32
2023-04-07T23:50:50.747Z,4.10
2023-04-07T23:53:18.257Z,4.46
2023-04-07T23:55:45.998Z,4.69
2023-04-07T23:58:14.820Z,5.51
